Time;durP1;ratioP1;P1;durP2;ratioP2;P2;SDS_P1;SDS_P2;PMS_P1;PMS_P2;Temp;Humidity;BMP_temperature;BMP_pressure;BME280_temperature;BME280_humidity;BME280_pressure;Samples;Min_cycle;Max_cycle;Signal;HPM_P1;HPM_P2
2024/04/06 11:00:48;;;;;;;2.80;1.33;;;;;;;25.08;70.85;99305.97;6121414;23;20009;-87
2024/04/06 11:03:14;;;;;;;2.30;1.20;;;;;;;25.26;69.67;99288.50;6016488;23;20027;-88
2024/04/06 11:05:40;;;;;;;1.95;1.10;;;;;;;25.44;68.31;99292.56;6040115;23;20356;-88
2024/04/06 11:08:07;;;;;;;1.77;1.30;;;;;;;25.65;68.00;99282.78;6016167;23;20078;-87
2024/04/06 11:10:34;;;;;;;3.25;1.42;;;;;;;25.91;67.54;99278.56;6015945;23;20023;-87
2024/04/06 11:13:04;;;;;;;4.32;1.52;;;;;;;26.22;65.35;99279.94;6018618;23;20554;-88
2024/04/06 11:15:48;;;;;;;3.38;1.33;;;;;;;26.61;69.90;99270.28;6016887;23;20026;-88
2024/04/06 11:18:16;;;;;;;3.13;1.20;;;;;;;27.16;69.98;99268.47;6040250;23;20727;-88
2024/04/06 11:20:45;;;;;;;2.20;1.25;;;;;;;27.69;68.31;99267.59;6039609;23;20351;-88
2024/04/06 11:23:20;;;;;;;1.55;1.13;;;;;;;28.19;60.30;99260.72;6018131;23;20023;-88
2024/04/06 11:25:48;;;;;;;2.95;1.20;;;;;;;28.60;59.43;99250.50;6016498;23;20037;-88
2024/04/06 11:28:16;;;;;;;2.33;1.20;;;;;;;28.89;60.09;99250.09;6016177;23;20031;-88
2024/04/06 11:30:44;;;;;;;2.83;1.13;;;;;;;29.02;55.39;99259.19;6016573;23;20027;-88
2024/04/06 11:33:10;;;;;;;2.78;1.27;;;;;;;29.07;57.42;99253.94;6018202;23;20460;-88
2024/04/06 11:35:39;;;;;;;1.73;1.10;;;;;;;29.04;54.49;99248.97;6014695;23;20036;-88
2024/04/06 11:38:05;;;;;;;3.58;1.60;;;;;;;29.02;55.47;99256.47;6016487;23;20034;-87
2024/04/06 11:40:30;;;;;;;2.78;1.15;;;;;;;28.95;55.50;99253.81;6039248;23;20078;-88
2024/04/06 11:42:56;;;;;;;4.65;1.10;;;;;;;28.86;55.81;99251.34;6040193;23;20027;-88
2024/04/06 11:45:22;;;;;;;1.27;1.10;;;;;;;28.79;55.63;99247.06;6017754;23;20129;-87
2024/04/06 11:47:47;;;;;;;1.73;1.10;;;;;;;28.66;54.74;99237.16;6018687;23;20027;-88
2024/04/06 11:50:13;;;;;;;3.92;1.27;;;;;;;28.52;54.53;99234.53;6041382;23;20535;-87
2024/04/06 11:52:39;;;;;;;2.22;1.25;;;;;;;28.37;55.25;99228.63;6018175;23;20045;-87
2024/04/06 11:55:05;;;;;;;1.67;1.20;;;;;;;28.23;55.43;99244.91;6041926;23;20026;-87
2024/04/06 11:57:30;;;;;;;1.80;1.25;;;;;;;28.10;55.84;99234.97;6041849;23;20030;-87
2024/04/06 11:59:56;;;;;;;2.75;1.10;;;;;;;28.01;54.95;99252.50;6041422;23;20097;-87
2024/04/06 12:02:22;;;;;;;9.52;1.52;;;;;;;28.00;57.73;99248.13;6040927;23;20023;-86
2024/04/06 12:04:47;;;;;;;4.05;1.10;;;;;;;28.15;58.75;99239.75;6040355;23;20450;-87
2024/04/06 12:07:13;;;;;;;5.05;1.23;;;;;;;28.43;58.42;99242.09;6016352;23;20098;-87
2024/04/06 12:09:38;;;;;;;2.13;1.20;;;;;;;28.78;58.16;99251.63;6039405;23;20035;-87
2024/04/06 12:12:07;;;;;;;3.28;1.13;;;;;;;29.07;55.73;99237.66;6016412;23;20023;-87
2024/04/06 12:14:33;;;;;;;3.13;1.25;;;;;;;29.25;53.79;99234.16;6040471;23;20026;-87
2024/04/06 12:17:00;;;;;;;1.30;1.00;;;;;;;29.29;52.80;99232.66;6016301;23;20030;-87
2024/04/06 12:19:26;;;;;;;2.65;1.30;;;;;;;29.26;52.72;99227.69;6039387;23;20038;-87
2024/04/06 12:21:52;;;;;;;2.42;1.10;;;;;;;29.17;52.16;99221.75;6016553;23;20034;-87
2024/04/06 12:24:18;;;;;;;2.80;1.00;;;;;;;29.08;52.29;99213.06;6039815;23;20034;-87
2024/04/06 12:26:43;;;;;;;5.22;1.35;;;;;;;28.97;51.46;99217.34;6016229;23;20022;-87
2024/04/06 12:29:09;;;;;;;2.75;1.30;;;;;;;28.90;52.46;99213.03;6015926;23;20028;-87
2024/04/06 12:31:35;;;;;;;2.40;1.20;;;;;;;28.85;52.94;99202.81;6039804;23;20106;-87
2024/04/06 12:34:00;;;;;;;2.15;1.20;;;;;;;28.88;54.58;99192.38;6016422;23;20359;-87
2024/04/06 12:36:26;;;;;;;2.45;1.40;;;;;;;28.99;55.21;99184.59;6040293;23;20106;-88
2024/04/06 12:38:54;;;;;;;2.67;1.30;;;;;;;29.21;56.04;99190.44;6016091;23;20027;-88
2024/04/06 12:41:20;;;;;;;1.48;1.08;;;;;;;29.51;55.71;99172.59;6039496;23;20030;-87
2024/04/06 12:43:45;;;;;;;4.35;1.20;;;;;;;29.85;55.31;99189.28;6039676;23;20105;-89
2024/04/06 12:46:11;;;;;;;1.80;1.10;;;;;;;30.16;53.91;99181.19;6039641;23;20027;-88
2024/04/06 12:48:37;;;;;;;2.13;1.13;;;;;;;30.42;53.11;99198.94;6015720;23;20029;-88
2024/04/06 12:51:03;;;;;;;1.77;1.20;;;;;;;30.62;51.82;99186.94;6015025;23;20023;-88
2024/04/06 12:53:29;;;;;;;2.35;1.10;;;;;;;30.75;52.11;99195.94;6015398;23;20563;-88
2024/04/06 12:55:55;;;;;;;2.03;1.20;;;;;;;30.88;50.86;99184.03;6015843;23;20026;-88
2024/04/06 12:58:21;;;;;;;1.52;0.98;;;;;;;30.95;50.83;99188.28;6039094;23;20628;-88
2024/04/06 13:00:47;;;;;;;1.67;1.02;;;;;;;31.01;49.33;99181.06;6038712;23;20023;-88
2024/04/06 13:03:13;;;;;;;1.70;0.95;;;;;;;31.07;49.74;99182.81;6039044;23;20356;-88
2024/04/06 13:05:38;;;;;;;2.95;1.17;;;;;;;31.13;48.94;99169.38;6015986;23;20027;-88
2024/04/06 13:08:04;;;;;;;1.90;1.25;;;;;;;31.20;49.54;99178.22;6039618;23;20030;-88
2024/04/06 13:10:30;;;;;;;2.05;1.30;;;;;;;31.27;49.25;99168.03;6039074;23;20027;-88
2024/04/06 13:12:59;;;;;;;1.90;1.00;;;;;;;31.31;47.08;99173.84;6016383;23;20360;-88
2024/04/06 13:15:25;;;;;;;2.35;1.00;;;;;;;31.29;47.37;99168.63;6016091;23;20061;-88
2024/04/06 13:17:54;;;;;;;4.28;1.08;;;;;;;31.23;42.76;99175.03;6041350;23;20030;-88
2024/04/06 13:20:20;;;;;;;1.92;0.98;;;;;;;31.21;47.48;99160.84;6041179;23;20086;-88
2024/04/06 13:22:48;;;;;;;1.38;0.85;;;;;;;31.18;46.08;99155.88;6017969;23;20031;-88
2024/04/06 13:25:18;;;;;;;2.15;1.17;;;;;;;31.15;46.62;99150.91;6017764;23;20542;-88
2024/04/06 13:27:45;;;;;;;4.72;1.63;;;;;;;31.10;45.57;99148.94;6017698;23;20086;-88
2024/04/06 13:30:11;;;;;;;6.47;1.50;;;;;;;31.06;46.72;99136.88;6040889;23;20023;-88
2024/04/06 13:32:37;;;;;;;1.88;1.10;;;;;;;31.02;46.54;99133.00;6041641;23;20027;-88
2024/04/06 13:35:06;;;;;;;2.90;1.10;;;;;;;30.98;46.41;99139.97;6041268;23;20027;-88
2024/04/06 13:37:33;;;;;;;3.10;1.20;;;;;;;30.93;46.21;99122.47;6017556;23;20026;-88
2024/04/06 13:40:00;;;;;;;2.08;1.15;;;;;;;30.87;45.58;99117.97;6040797;23;20030;-88
2024/04/06 13:42:26;;;;;;;2.35;1.20;;;;;;;30.83;45.57;99121.44;6040975;23;20023;-87
2024/04/06 13:44:52;;;;;;;2.50;1.23;;;;;;;30.75;45.63;99103.59;6041025;23;20090;-87
2024/04/06 13:47:18;;;;;;;1.65;0.85;;;;;;;30.66;45.60;99094.94;6041404;23;20026;-88
2024/04/06 13:49:43;;;;;;;1.63;0.93;;;;;;;30.55;46.08;99105.59;6041032;23;20476;-88
2024/04/06 13:52:09;;;;;;;1.85;0.88;;;;;;;30.49;45.53;99108.41;6017459;23;20027;-87
2024/04/06 13:54:37;;;;;;;1.20;1.02;;;;;;;30.38;45.50;99097.31;6040934;23;20042;-87
2024/04/06 13:57:06;;;;;;;4.18;1.13;;;;;;;30.28;43.62;99088.91;6041328;23;20026;-87
2024/04/06 13:59:33;;;;;;;2.17;0.95;;;;;;;30.24;46.41;99072.25;6041015;23;20506;-88
2024/04/06 14:01:59;;;;;;;3.22;1.10;;;;;;;30.18;45.46;99081.34;6040707;23;20023;-87
2024/04/06 14:04:25;;;;;;;4.28;1.15;;;;;;;30.13;45.04;99075.81;6041147;23;20031;-88
2024/04/06 14:06:51;;;;;;;2.25;1.10;;;;;;;30.07;45.76;99068.53;6041056;23;20468;-88
2024/04/06 14:09:19;;;;;;;3.13;1.05;;;;;;;30.00;45.27;99057.81;6040485;23;20055;-88
2024/04/06 14:11:46;;;;;;;1.52;0.90;;;;;;;29.91;43.51;99066.28;6040844;23;20034;-88
2024/04/06 14:14:16;;;;;;;1.13;0.88;;;;;;;29.84;41.71;99075.59;6017597;23;20078;-88
2024/04/06 14:16:46;;;;;;;1.40;1.00;;;;;;;29.80;41.57;99077.94;6017060;23;20079;-88
2024/04/06 14:19:15;;;;;;;1.40;0.65;;;;;;;29.82;43.78;99078.53;6040549;23;20027;-88
2024/04/06 14:21:42;;;;;;;1.73;1.00;;;;;;;29.85;44.06;99075.34;6017063;23;20027;-88
2024/04/06 14:24:08;;;;;;;2.47;0.90;;;;;;;29.90;44.01;99077.38;6040769;23;20023;-87
2024/04/06 14:26:34;;;;;;;1.70;1.05;;;;;;;29.96;43.91;99065.59;6017461;23;20150;-87
2024/04/06 14:28:59;;;;;;;1.38;0.90;;;;;;;30.04;43.26;99067.97;6016387;23;20038;-88
2024/04/06 14:31:26;;;;;;;2.97;1.02;;;;;;;30.12;43.16;99074.13;6017132;23;20023;-88
2024/04/06 14:33:52;;;;;;;1.20;0.88;;;;;;;30.20;42.92;99065.66;6016766;23;20034;-88
2024/04/06 14:36:18;;;;;;;2.00;0.80;;;;;;;30.26;43.29;99085.59;6016894;23;20027;-87
2024/04/06 14:38:44;;;;;;;2.63;1.02;;;;;;;30.33;42.09;99085.50;6016716;23;20023;-88
2024/04/06 14:41:09;;;;;;;2.70;1.17;;;;;;;30.37;41.79;99100.25;6040494;23;20023;-88
2024/04/06 14:43:35;;;;;;;2.58;1.42;;;;;;;30.36;40.26;99114.88;6017155;23;20034;-88
2024/04/06 14:46:01;;;;;;;2.20;1.00;;;;;;;30.33;39.38;99121.63;6040556;23;20058;-88
2024/04/06 14:48:28;;;;;;;1.55;0.95;;;;;;;30.29;40.78;99123.13;6016808;23;20083;-88
2024/04/06 14:50:58;;;;;;;1.27;0.95;;;;;;;30.19;39.62;99128.34;6017131;23;20019;-88
2024/04/06 14:53:30;;;;;;;5.43;1.02;;;;;;;30.06;38.54;99130.16;6040750;23;20023;-87
2024/04/06 14:55:55;;;;;;;1.48;1.00;;;;;;;29.96;40.08;99144.28;6033361;23;20082;-88
2024/04/06 14:58:21;;;;;;;2.78;1.20;;;;;;;29.82;39.49;99142.81;6017032;23;20026;-87
2024/04/06 15:00:48;;;;;;;2.30;1.00;;;;;;;29.70;40.41;99148.16;6015138;23;20109;-88
2024/04/06 15:03:14;;;;;;;2.33;1.35;;;;;;;29.56;39.56;99155.66;6039929;23;20086;-87
2024/04/06 15:05:40;;;;;;;4.15;1.77;;;;;;;29.42;40.46;99154.97;6016725;23;20031;-88
2024/04/06 15:08:06;;;;;;;2.92;1.30;;;;;;;29.28;39.58;99160.56;6040204;23;20077;-88
2024/04/06 15:10:33;;;;;;;3.83;1.13;;;;;;;29.13;39.28;99161.75;6039598;23;20094;-87
2024/04/06 15:12:59;;;;;;;4.93;1.17;;;;;;;29.03;40.70;99168.75;6040401;23;20034;-87
2024/04/06 15:15:25;;;;;;;1.33;0.93;;;;;;;28.92;39.82;99167.59;6016517;23;20027;-87
2024/04/06 15:17:53;;;;;;;2.63;1.20;;;;;;;28.79;38.70;99154.97;6040064;23;20333;-87
2024/04/06 15:20:19;;;;;;;3.95;1.13;;;;;;;28.71;39.98;99154.19;6040116;23;20023;-87
2024/04/06 15:22:45;;;;;;;2.75;0.90;;;;;;;28.65;39.90;99154.25;6016700;23;20064;-87
2024/04/06 15:25:12;;;;;;;2.25;1.20;;;;;;;28.59;39.58;99151.38;6016435;23;20094;-87
2024/04/06 15:27:39;;;;;;;1.80;1.23;;;;;;;28.54;38.08;99136.84;6040257;23;20093;-87
2024/04/06 15:30:06;;;;;;;2.28;1.33;;;;;;;28.50;38.42;99144.59;6016347;23;20026;-87
2024/04/06 15:32:33;;;;;;;1.38;1.05;;;;;;;28.51;39.15;99132.72;6016405;23;20018;-87
2024/04/06 15:34:58;;;;;;;1.92;1.15;;;;;;;28.50;38.78;99141.91;6016204;23;20471;-87
2024/04/06 15:37:24;;;;;;;3.22;0.90;;;;;;;28.51;39.52;99142.72;6040293;23;20027;-87
2024/04/06 15:39:52;;;;;;;1.65;1.00;;;;;;;28.47;37.55;99140.47;6016184;23;20099;-87
2024/04/06 15:42:19;;;;;;;3.60;1.10;;;;;;;28.45;39.07;99137.13;6017198;23;20018;-87
2024/04/06 15:44:45;;;;;;;3.10;0.95;;;;;;;28.42;37.82;99151.13;6040386;23;20023;-86
2024/04/06 15:47:11;;;;;;;1.27;1.05;;;;;;;28.37;39.54;99137.44;6040955;23;20031;-87
2024/04/06 15:49:36;;;;;;;2.50;1.10;;;;;;;28.32;38.64;99137.22;6040083;23;20034;-87
2024/04/06 15:52:02;;;;;;;3.70;1.00;;;;;;;28.27;38.33;99137.06;6016330;23;20464;-87
2024/04/06 15:55:11;;;;;;;1.73;1.17;;;;;;;28.13;35.69;99136.31;6016587;23;20464;-88
2024/04/06 15:57:40;;;;;;;3.13;1.15;;;;;;;28.13;36.29;99131.72;5973087;23;20030;-88
2024/04/06 16:00:10;;;;;;;2.83;1.00;;;;;;;28.06;36.24;99139.91;6041633;23;20030;-88
2024/04/06 16:02:36;;;;;;;3.05;1.13;;;;;;;28.02;38.86;99141.38;6018518;23;20133;-88
2024/04/06 16:05:07;;;;;;;2.13;1.10;;;;;;;27.96;38.18;99142.25;6041745;23;20022;-87
2024/04/06 16:07:33;;;;;;;1.13;0.80;;;;;;;27.91;39.03;99148.31;6016634;23;20026;-87
2024/04/06 16:10:00;;;;;;;2.40;0.90;;;;;;;27.86;39.41;99137.31;6013935;23;20023;-87
2024/04/06 16:12:30;;;;;;;3.88;1.20;;;;;;;27.79;39.21;99141.91;6015234;23;20018;-87
2024/04/06 16:14:58;;;;;;;4.95;0.88;;;;;;;27.73;39.31;99142.81;6016396;23;20363;-88
2024/04/06 16:17:24;;;;;;;3.20;0.95;;;;;;;27.66;38.65;99151.75;6016285;23;20514;-87
2024/04/06 16:19:50;;;;;;;1.65;1.00;;;;;;;27.60;39.33;99158.00;6040602;23;20367;-88
2024/04/06 16:22:38;;;;;;;;;;;;;;;;;;;;;
2024/04/06 16:25:27;;;;;;;1.77;1.30;;;;;;;27.48;38.42;99147.03;6040508;23;20023;-87
2024/04/06 16:27:53;;;;;;;3.25;1.15;;;;;;;27.43;39.86;99139.56;6020283;23;20468;-87
2024/04/06 16:30:27;;;;;;;2.40;0.90;;;;;;;27.37;39.96;99145.00;6014719;23;20022;-87
2024/04/06 16:32:53;;;;;;;1.65;1.10;;;;;;;27.32;40.44;99146.47;6015663;23;20317;-87
2024/04/06 16:35:26;;;;;;;3.17;1.30;;;;;;;27.28;40.39;99152.53;6015754;23;20399;-87
2024/04/06 16:37:52;;;;;;;2.97;1.00;;;;;;;27.21;40.35;99154.41;6040237;23;20027;-87
2024/04/06 16:40:19;;;;;;;2.83;1.35;;;;;;;27.16;39.87;99163.13;6039142;23;20543;-88
2024/04/06 16:42:45;;;;;;;2.63;1.10;;;;;;;27.11;40.00;99152.97;6039155;23;20019;-87
2024/04/06 16:45:11;;;;;;;5.03;1.20;;;;;;;27.10;40.33;99164.78;6015221;23;20356;-87
2024/04/06 16:47:37;;;;;;;2.45;1.05;;;;;;;27.01;39.05;99161.50;6038725;23;20105;-87
2024/04/06 16:50:10;;;;;;;2.10;1.00;;;;;;;26.96;37.93;99169.41;6039292;23;20026;-87
2024/04/06 16:52:41;;;;;;;5.43;1.35;;;;;;;26.97;38.03;99172.91;6041514;23;20368;-87
2024/04/06 16:55:09;;;;;;;3.50;1.13;;;;;;;26.93;38.68;99165.22;6041370;23;20023;-88
2024/04/06 16:57:42;;;;;;;3.33;1.30;;;;;;;26.92;40.33;99171.66;6018132;23;20027;-88
2024/04/06 17:00:14;;;;;;;2.55;1.10;;;;;;;26.86;37.81;99167.09;6017795;23;20038;-87
2024/04/06 17:02:43;;;;;;;1.65;1.20;;;;;;;26.84;39.22;99163.78;6041877;23;20074;-87
2024/04/06 17:05:11;;;;;;;3.20;1.02;;;;;;;26.79;39.63;99156.31;6041854;23;20404;-87
2024/04/06 17:07:37;;;;;;;2.33;1.42;;;;;;;26.74;39.47;99179.56;6018060;23;20034;-87
2024/04/06 17:10:11;;;;;;;3.53;1.27;;;;;;;26.66;39.19;99157.13;6041048;23;20029;-87
2024/04/06 17:12:40;;;;;;;5.10;2.13;;;;;;;26.62;39.12;99158.63;6041590;23;20023;-87
2024/04/06 17:15:13;;;;;;;10.13;1.40;;;;;;;26.52;35.85;99166.28;6041752;23;20034;-87
2024/04/06 17:17:41;;;;;;;2.33;1.48;;;;;;;26.49;38.49;99162.13;6018560;23;20034;-87
2024/04/06 17:20:10;;;;;;;2.63;1.30;;;;;;;26.45;39.51;99157.34;6017325;23;20086;-87
2024/04/06 17:22:43;;;;;;;2.10;1.15;;;;;;;26.38;38.28;99160.88;6016912;23;20039;-87
2024/04/06 17:25:11;;;;;;;4.53;1.20;;;;;;;26.32;39.29;99163.56;6017067;23;20079;-87
2024/04/06 17:27:52;;;;;;;;;;;;;;;;;;;;;
2024/04/06 17:30:21;;;;;;;5.60;1.35;;;;;;;26.19;38.08;99167.88;6040821;23;20023;-87
2024/04/06 17:32:56;;;;;;;3.38;1.50;;;;;;;26.13;39.41;99161.44;6038970;23;20447;-87
2024/04/06 17:35:25;;;;;;;4.85;2.00;;;;;;;26.10;40.40;99169.94;6016820;23;20031;-87
2024/04/06 17:37:53;;;;;;;3.72;1.60;;;;;;;26.05;40.36;99171.59;6041207;23;20523;-87
2024/04/06 17:40:21;;;;;;;3.35;1.13;;;;;;;25.99;40.24;99168.69;6040779;23;20037;-87
2024/04/06 17:42:47;;;;;;;4.03;1.38;;;;;;;25.94;40.70;99176.53;6040772;23;20018;-87
2024/04/06 17:45:13;;;;;;;3.95;1.20;;;;;;;25.89;40.68;99173.63;6017622;23;20030;-87
2024/04/06 17:47:39;;;;;;;1.92;1.30;;;;;;;25.83;40.32;99171.75;6017412;23;20027;-86
2024/04/06 17:50:07;;;;;;;2.78;1.63;;;;;;;25.78;40.53;99182.31;6039863;23;20074;-87
2024/04/06 17:52:43;;;;;;;6.90;1.70;;;;;;;25.71;40.04;99182.28;6041728;23;20029;-87
2024/04/06 17:55:12;;;;;;;3.10;1.60;;;;;;;25.63;38.81;99184.09;6016795;23;20027;-88
2024/04/06 17:57:38;;;;;;;2.53;1.33;;;;;;;25.59;41.24;99182.84;6016872;23;20026;-87
2024/04/06 18:00:04;;;;;;;3.33;1.77;;;;;;;25.52;40.98;99178.44;6017006;23;20031;-87
2024/04/06 18:02:30;;;;;;;3.75;1.30;;;;;;;25.45;41.06;99178.41;6016881;23;20030;-88
2024/04/06 18:04:56;;;;;;;4.68;1.50;;;;;;;25.36;40.89;99177.72;6017184;23;20098;-87
2024/04/06 18:07:22;;;;;;;5.30;1.10;;;;;;;25.31;41.56;99188.25;6017650;23;20027;-87
2024/04/06 18:09:47;;;;;;;1.77;1.13;;;;;;;25.24;41.83;99182.84;6040721;23;20030;-87
2024/04/06 18:12:13;;;;;;;4.18;1.65;;;;;;;25.19;41.63;99188.00;6017498;23;20029;-87
2024/04/06 18:14:39;;;;;;;3.97;1.10;;;;;;;25.11;41.22;99188.97;6041265;23;20030;-87
2024/04/06 18:17:07;;;;;;;4.60;1.30;;;;;;;25.03;40.64;99202.56;6041330;23;20029;-87
2024/04/06 18:19:33;;;;;;;3.40;1.50;;;;;;;24.97;41.70;99205.03;6017128;23;20109;-87
2024/04/06 18:21:58;;;;;;;1.30;1.10;;;;;;;24.92;41.68;99203.94;6017267;23;20333;-87
2024/04/06 18:24:30;;;;;;;2.00;1.13;;;;;;;24.82;40.13;99199.69;6041437;23;20471;-87
2024/04/06 18:26:56;;;;;;;3.15;1.45;;;;;;;24.81;41.92;99199.88;6017305;23;20027;-86
2024/04/06 18:29:21;;;;;;;1.40;1.17;;;;;;;24.78;41.99;99198.41;6040344;23;20078;-86
2024/04/06 18:31:47;;;;;;;1.88;1.20;;;;;;;24.75;41.80;99203.38;6017057;23;20074;-86
2024/04/06 18:34:16;;;;;;;2.72;1.45;;;;;;;24.70;41.63;99218.25;6041268;23;20031;-86
2024/04/06 18:36:43;;;;;;;3.05;1.52;;;;;;;24.69;42.17;99223.81;6017388;23;20033;-86
2024/04/06 18:39:08;;;;;;;4.80;1.50;;;;;;;24.67;42.05;99212.44;6017142;23;20027;-86
2024/04/06 18:41:34;;;;;;;4.18;2.05;;;;;;;24.62;42.14;99215.69;6017137;23;20026;-86
2024/04/06 18:44:00;;;;;;;3.67;1.70;;;;;;;24.58;42.51;99217.94;6016814;23;20027;-86
2024/04/06 18:46:25;;;;;;;3.10;1.60;;;;;;;24.54;42.08;99219.34;6017447;23;20037;-86
2024/04/06 18:48:51;;;;;;;3.80;1.70;;;;;;;24.49;42.21;99224.47;6040256;23;20030;-86
2024/04/06 18:51:17;;;;;;;4.80;1.60;;;;;;;24.44;42.53;99224.19;6040868;23;20086;-86
2024/04/06 18:53:42;;;;;;;5.68;1.90;;;;;;;24.37;42.25;99226.00;6040912;23;20034;-86
2024/04/06 18:56:08;;;;;;;1.92;1.55;;;;;;;24.31;42.65;99228.44;6016901;23;20368;-86
2024/04/06 18:58:34;;;;;;;3.10;2.00;;;;;;;24.28;42.24;99230.66;6016698;23;20397;-86
2024/04/06 19:00:59;;;;;;;3.75;1.60;;;;;;;24.24;42.32;99238.28;6040150;23;20026;-86
2024/04/06 19:03:25;;;;;;;4.97;1.80;;;;;;;24.22;42.65;99231.44;6040588;23;20066;-86
2024/04/06 19:05:51;;;;;;;3.03;1.70;;;;;;;24.18;42.37;99236.38;6016775;23;20023;-86
2024/04/06 19:08:16;;;;;;;2.17;1.60;;;;;;;24.13;42.49;99231.53;6016482;23;20069;-86
2024/04/06 19:10:42;;;;;;;4.05;1.67;;;;;;;24.12;42.95;99231.72;6042217;23;20492;-86
2024/04/06 19:13:08;;;;;;;3.67;2.22;;;;;;;24.07;42.59;99229.59;6018439;23;20098;-86
2024/04/06 19:15:33;;;;;;;5.82;1.83;;;;;;;24.06;42.87;99238.66;6018797;23;20034;-86
2024/04/06 19:17:59;;;;;;;2.78;1.40;;;;;;;24.02;42.85;99224.78;6018108;23;20026;-86
2024/04/06 19:20:25;;;;;;;3.20;1.60;;;;;;;23.99;43.00;99229.69;6041329;23;20034;-86
2024/04/06 19:22:51;;;;;;;3.47;1.27;;;;;;;23.94;42.82;99228.41;6041559;23;20023;-86
2024/04/06 19:25:18;;;;;;;4.25;1.58;;;;;;;23.91;42.64;99236.84;6018348;23;20026;-86
2024/04/06 19:27:44;;;;;;;3.58;1.30;;;;;;;23.88;42.96;99233.72;6042076;23;20045;-86
2024/04/06 19:30:10;;;;;;;4.32;1.50;;;;;;;23.86;43.22;99231.19;6040620;23;20027;-86
2024/04/06 19:32:37;;;;;;;4.38;1.70;;;;;;;23.82;43.46;99230.72;6041358;23;20022;-86
2024/04/06 19:35:03;;;;;;;1.83;1.15;;;;;;;23.80;42.91;99227.41;6017311;23;20100;-86
2024/04/06 19:37:28;;;;;;;2.55;1.45;;;;;;;23.77;43.06;99226.97;6018358;23;20430;-86
2024/04/06 19:39:54;;;;;;;2.88;1.48;;;;;;;23.74;43.27;99222.75;6017393;23;20467;-86
2024/04/06 19:42:20;;;;;;;3.25;1.33;;;;;;;23.72;43.50;99223.97;6041169;23;20022;-86
2024/04/06 19:44:45;;;;;;;2.13;1.63;;;;;;;23.68;43.86;99223.53;6040995;23;20034;-86
2024/04/06 19:47:15;;;;;;;4.10;1.52;;;;;;;23.60;42.98;99224.47;6040111;23;20118;-86
2024/04/06 19:49:41;;;;;;;2.33;1.25;;;;;;;23.56;43.64;99229.34;6040545;23;20527;-86
2024/04/06 19:52:07;;;;;;;2.20;1.40;;;;;;;23.50;43.08;99227.44;6040800;23;20019;-86
2024/04/06 19:54:33;;;;;;;3.65;1.40;;;;;;;23.41;43.83;99223.16;6017080;23;20344;-86
2024/04/06 19:56:58;;;;;;;4.00;1.30;;;;;;;23.37;43.83;99227.25;6041119;23;20355;-86
2024/04/06 19:59:24;;;;;;;2.10;1.27;;;;;;;23.34;43.90;99227.59;6040042;23;20067;-86
2024/04/06 20:01:50;;;;;;;1.98;1.20;;;;;;;23.30;43.72;99221.75;6016762;23;20050;-86
2024/04/06 20:04:16;;;;;;;2.05;1.17;;;;;;;23.26;43.92;99215.91;6040268;23;20037;-85
2024/04/06 20:06:41;;;;;;;3.70;1.60;;;;;;;23.23;44.17;99224.34;6040456;23;20420;-86
2024/04/06 20:09:09;;;;;;;2.83;1.30;;;;;;;23.22;44.25;99216.47;6016007;23;20086;-86
2024/04/06 20:11:35;;;;;;;2.55;1.20;;;;;;;23.17;44.00;99215.16;6017819;23;20459;-86
2024/04/06 20:14:01;;;;;;;1.45;1.13;;;;;;;23.15;44.28;99213.69;6040960;23;20034;-86
2024/04/06 20:16:26;;;;;;;2.38;1.27;;;;;;;23.12;44.02;99219.41;6040505;23;20023;-86
2024/04/06 20:18:52;;;;;;;6.35;1.70;;;;;;;23.09;43.99;99215.22;6039977;23;20360;-86
2024/04/06 20:21:18;;;;;;;1.75;1.20;;;;;;;23.08;43.72;99207.38;6017929;23;20023;-85
2024/04/06 20:26:33;;;;;;;3.45;1.20;;;;;;;23.03;43.93;99198.00;6042685;23;20085;-86
2024/04/06 20:28:59;;;;;;;3.33;1.40;;;;;;;23.02;44.42;99199.03;6018781;23;20023;-86
2024/04/06 20:31:25;;;;;;;2.53;1.40;;;;;;;23.01;44.17;99191.16;6042838;23;20026;-86
2024/04/06 20:33:51;;;;;;;3.20;1.50;;;;;;;23.01;44.40;99185.78;6018748;23;20031;-86
2024/04/06 20:36:17;;;;;;;3.42;1.20;;;;;;;22.99;44.64;99185.16;6019147;23;20033;-86
2024/04/06 20:38:45;;;;;;;2.50;1.27;;;;;;;22.97;44.77;99188.00;6018645;23;20027;-86
2024/04/06 20:41:14;;;;;;;3.78;1.55;;;;;;;22.94;44.29;99182.19;6019337;23;20030;-86
2024/04/06 20:43:41;;;;;;;1.55;1.20;;;;;;;22.90;44.56;99189.75;6042674;23;20023;-86
2024/04/06 20:46:06;;;;;;;5.00;1.50;;;;;;;22.87;44.75;99179.38;6042705;23;20029;-86
2024/04/06 20:48:32;;;;;;;2.83;1.48;;;;;;;22.81;44.43;99174.75;6042128;23;20031;-86
2024/04/06 20:50:58;;;;;;;2.17;1.40;;;;;;;22.76;44.53;99180.66;6042692;23;20031;-86
2024/04/06 20:53:23;;;;;;;3.45;2.00;;;;;;;22.70;44.63;99179.53;6042822;23;20023;-85
2024/04/06 20:55:49;;;;;;;3.72;1.58;;;;;;;22.65;45.32;99184.59;6042550;23;20363;-86
2024/04/06 20:58:15;;;;;;;2.30;1.50;;;;;;;22.59;44.96;99183.50;6019343;23;20022;-86
2024/04/06 21:00:41;;;;;;;1.98;1.40;;;;;;;22.55;44.96;99182.19;6042143;23;20026;-86
2024/04/06 21:03:06;;;;;;;4.38;1.77;;;;;;;22.48;45.38;99176.69;6042586;23;20033;-86
2024/04/06 21:05:32;;;;;;;3.00;1.42;;;;;;;22.44;45.66;99178.06;6018862;23;20026;-86
2024/04/06 21:07:58;;;;;;;6.53;1.75;;;;;;;22.40;45.64;99174.06;6018959;23;20065;-86
2024/04/06 21:10:23;;;;;;;2.05;1.30;;;;;;;22.37;45.87;99175.25;6042662;23;20027;-85
2024/04/06 21:12:49;;;;;;;3.90;1.50;;;;;;;22.35;45.46;99173.75;6042845;23;20384;-86
2024/04/06 21:15:23;;;;;;;4.13;1.58;;;;;;;22.29;44.37;99169.09;6042697;23;20134;-86
2024/04/06 21:17:50;;;;;;;3.53;1.42;;;;;;;22.31;45.69;99175.13;6019681;23;20023;-86
2024/04/06 21:20:17;;;;;;;5.95;1.33;;;;;;;22.29;45.88;99167.25;6019127;23;20391;-86
2024/04/06 21:22:43;;;;;;;1.88;1.40;;;;;;;22.26;46.32;99159.56;6019173;23;20029;-86
2024/04/06 21:25:09;;;;;;;1.70;1.23;;;;;;;22.25;46.11;99158.72;6019648;23;20083;-86
2024/04/06 21:27:35;;;;;;;2.42;1.25;;;;;;;22.23;46.20;99160.78;6019425;23;20022;-86
2024/04/06 21:30:01;;;;;;;2.38;1.33;;;;;;;22.21;46.09;99161.97;6018949;23;20033;-86
2024/04/06 21:32:27;;;;;;;4.32;1.52;;;;;;;22.19;46.32;99164.81;6019951;23;20089;-86
2024/04/06 21:34:53;;;;;;;3.15;1.65;;;;;;;22.18;46.04;99165.00;6043186;23;20022;-86
2024/04/06 21:37:20;;;;;;;3.28;1.58;;;;;;;22.16;45.98;99170.53;6019660;23;20042;-86
2024/04/06 21:39:45;;;;;;;2.38;1.40;;;;;;;22.12;46.33;99163.84;6019074;23;20035;-86
2024/04/06 21:42:11;;;;;;;2.78;1.40;;;;;;;22.10;46.28;99165.88;6018895;23;20023;-85
2024/04/06 21:44:37;;;;;;;2.17;1.38;;;;;;;22.07;46.00;99152.84;6019279;23;20034;-86
2024/04/06 21:47:02;;;;;;;2.03;1.48;;;;;;;22.04;46.47;99163.91;6042458;23;20027;-86
2024/04/06 21:49:28;;;;;;;3.45;1.50;;;;;;;22.00;46.18;99158.06;6042372;23;20467;-86
2024/04/06 21:51:54;;;;;;;2.85;1.23;;;;;;;21.96;46.37;99162.97;6042693;23;20097;-86
2024/04/06 21:54:21;;;;;;;3.00;1.42;;;;;;;21.93;46.25;99163.31;6042664;23;20094;-86
2024/04/06 21:56:46;;;;;;;4.15;1.40;;;;;;;21.91;46.11;99164.50;6019160;23;20033;-85
2024/04/06 21:59:12;;;;;;;2.25;1.30;;;;;;;21.87;46.61;99169.38;6042477;23;20023;-86
2024/04/06 22:01:38;;;;;;;3.38;1.17;;;;;;;21.85;46.92;99158.00;6018584;23;20023;-86
2024/04/06 22:04:04;;;;;;;2.70;1.20;;;;;;;21.82;46.89;99151.13;6042459;23;20027;-86
2024/04/06 22:06:33;;;;;;;1.90;1.23;;;;;;;21.80;46.62;99161.22;6019216;23;20073;-86
2024/04/06 22:08:58;;;;;;;1.40;1.15;;;;;;;21.80;46.97;99158.53;6042198;23;20026;-86
2024/04/06 22:11:24;;;;;;;4.32;1.60;;;;;;;21.77;46.82;99152.66;6018971;23;20029;-86
2024/04/06 22:13:50;;;;;;;2.55;1.23;;;;;;;21.73;46.85;99147.69;6042761;23;20328;-86
2024/04/06 22:16:16;;;;;;;3.58;1.50;;;;;;;21.71;46.91;99146.97;6042511;23;20483;-86
2024/04/06 22:18:42;;;;;;;1.30;1.20;;;;;;;21.67;47.32;99148.34;6018667;23;20042;-86
2024/04/06 22:21:07;;;;;;;3.85;1.67;;;;;;;21.65;47.42;99155.72;6042700;23;20037;-86
2024/04/06 22:23:33;;;;;;;2.33;1.42;;;;;;;21.62;46.96;99145.34;6019119;23;20027;-85
2024/04/06 22:25:59;;;;;;;1.50;1.20;;;;;;;21.60;46.97;99148.22;6042400;23;20093;-85
2024/04/06 22:28:24;;;;;;;2.65;1.38;;;;;;;21.57;47.37;99153.91;6018628;23;20129;-86
2024/04/06 22:30:50;;;;;;;2.47;1.58;;;;;;;21.55;47.61;99150.59;6018373;23;20029;-86
2024/04/06 22:33:16;;;;;;;1.85;1.30;;;;;;;21.54;47.47;99153.44;6042713;23;20027;-86
2024/04/06 22:35:42;;;;;;;1.88;1.15;;;;;;;21.53;47.67;99154.44;6042615;23;20494;-85
2024/04/06 22:38:07;;;;;;;1.30;1.10;;;;;;;21.52;47.38;99155.47;6018833;23;20046;-86